sensor_id;sensor_type;location;lat;lon;timestamp;pressure;altitude;pressure_sealevel;temperature;humidity
43312;BME280;30041;48.300;16.352;2022-08-19T00:01:14;99051.69;;;25.58;53.97
43312;BME280;30041;48.300;16.352;2022-08-19T00:03:39;99043.81;;;25.61;53.81
43312;BME280;30041;48.300;16.352;2022-08-19T00:06:05;99035.91;;;25.65;53.54
43312;BME280;30041;48.300;16.352;2022-08-19T00:08:31;99045.19;;;25.59;53.61
43312;BME280;30041;48.300;16.352;2022-08-19T00:10:57;99037.56;;;25.56;53.98
43312;BME280;30041;48.300;16.352;2022-08-19T00:13:22;99038.13;;;25.58;53.59
43312;BME280;30041;48.300;16.352;2022-08-19T00:15:48;99036.50;;;25.57;53.68
43312;BME280;30041;48.300;16.352;2022-08-19T00:18:17;99037.34;;;25.52;53.72
43312;BME280;30041;48.300;16.352;2022-08-19T00:20:42;99025.94;;;25.55;53.99
43312;BME280;30041;48.300;16.352;2022-08-19T00:23:08;99023.25;;;25.50;53.89
43312;BME280;30041;48.300;16.352;2022-08-19T00:25:36;99036.81;;;25.50;54.06
43312;BME280;30041;48.300;16.352;2022-08-19T00:28:03;99036.50;;;25.52;53.90
43312;BME280;30041;48.300;16.352;2022-08-19T00:30:31;99036.50;;;25.52;53.78
43312;BME280;30041;48.300;16.352;2022-08-19T00:32:57;99037.31;;;25.57;53.77
43312;BME280;30041;48.300;16.352;2022-08-19T00:35:23;99034.59;;;25.57;53.56
43312;BME280;30041;48.300;16.352;2022-08-19T00:37:49;99031.09;;;25.52;54.08
43312;BME280;30041;48.300;16.352;2022-08-19T00:40:16;99033.25;;;25.50;54.22
43312;BME280;30041;48.300;16.352;2022-08-19T00:42:42;99035.97;;;25.50;54.34
43312;BME280;30041;48.300;16.352;2022-08-19T00:45:20;99030.03;;;25.47;54.44
43312;BME280;30041;48.300;16.352;2022-08-19T00:47:46;99027.34;;;25.42;54.39
43312;BME280;30041;48.300;16.352;2022-08-19T00:50:13;99026.22;;;25.48;54.07
43312;BME280;30041;48.300;16.352;2022-08-19T00:52:46;99024.63;;;25.47;54.19
43312;BME280;30041;48.300;16.352;2022-08-19T00:55:17;99021.34;;;25.51;53.59
43312;BME280;30041;48.300;16.352;2022-08-19T00:57:48;99031.66;;;25.48;53.83
43312;BME280;30041;48.300;16.352;2022-08-19T01:00:18;99033.03;;;25.46;54.18
43312;BME280;30041;48.300;16.352;2022-08-19T01:02:44;99035.69;;;25.51;53.80
43312;BME280;30041;48.300;16.352;2022-08-19T01:05:16;99029.75;;;25.49;54.06
43312;BME280;30041;48.300;16.352;2022-08-19T01:07:42;99023.28;;;25.40;54.20
43312;BME280;30041;48.300;16.352;2022-08-19T01:10:11;99013.78;;;25.42;54.24
43312;BME280;30041;48.300;16.352;2022-08-19T01:12:37;99014.88;;;25.36;54.43
43312;BME280;30041;48.300;16.352;2022-08-19T01:15:06;99026.25;;;25.38;54.42
43312;BME280;30041;48.300;16.352;2022-08-19T01:17:33;99033.88;;;25.36;54.25
43312;BME280;30041;48.300;16.352;2022-08-19T01:20:00;99027.91;;;25.39;54.42
43312;BME280;30041;48.300;16.352;2022-08-19T01:24:54;99033.88;;;25.36;54.71
43312;BME280;30041;48.300;16.352;2022-08-19T01:27:20;99033.06;;;25.41;54.44
43312;BME280;30041;48.300;16.352;2022-08-19T01:29:46;99041.69;;;25.43;54.31
43312;BME280;30041;48.300;16.352;2022-08-19T01:32:14;99050.91;;;25.47;54.21
43312;BME280;30041;48.300;16.352;2022-08-19T01:34:41;99050.66;;;25.48;53.99
43312;BME280;30041;48.300;16.352;2022-08-19T01:37:09;99045.22;;;25.48;53.46
43312;BME280;30041;48.300;16.352;2022-08-19T01:39:34;99047.94;;;25.48;54.02
43312;BME280;30041;48.300;16.352;2022-08-19T01:42:00;99073.97;;;25.50;53.53
43312;BME280;30041;48.300;16.352;2022-08-19T01:44:29;99063.63;;;25.52;53.73
43312;BME280;30041;48.300;16.352;2022-08-19T01:46:54;99077.22;;;25.52;53.74
43312;BME280;30041;48.300;16.352;2022-08-19T01:49:21;99078.03;;;25.52;53.83
43312;BME280;30041;48.300;16.352;2022-08-19T01:51:51;99067.19;;;25.52;53.71
43312;BME280;30041;48.300;16.352;2022-08-19T01:54:18;99063.09;;;25.55;53.89
43312;BME280;30041;48.300;16.352;2022-08-19T01:56:44;99057.97;;;25.48;53.79
43312;BME280;30041;48.300;16.352;2022-08-19T01:59:18;99054.69;;;25.51;53.66
43312;BME280;30041;48.300;16.352;2022-08-19T02:01:48;99073.97;;;25.50;53.85
43312;BME280;30041;48.300;16.352;2022-08-19T02:04:13;99069.09;;;25.46;53.97
43312;BME280;30041;48.300;16.352;2022-08-19T02:06:39;99085.66;;;25.45;54.05
43312;BME280;30041;48.300;16.352;2022-08-19T02:09:06;99086.44;;;25.51;54.18
43312;BME280;30041;48.300;16.352;2022-08-19T02:11:33;99096.50;;;25.50;53.61
43312;BME280;30041;48.300;16.352;2022-08-19T02:14:03;99105.75;;;25.44;54.23
43312;BME280;30041;48.300;16.352;2022-08-19T02:16:29;99097.88;;;25.42;54.11
43312;BME280;30041;48.300;16.352;2022-08-19T02:18:55;99082.69;;;25.41;54.25
43312;BME280;30041;48.300;16.352;2022-08-19T02:21:22;99083.50;;;25.42;54.21
43312;BME280;30041;48.300;16.352;2022-08-19T02:23:49;99081.06;;;25.40;53.89
43312;BME280;30041;48.300;16.352;2022-08-19T02:26:17;99081.31;;;25.44;53.73
43312;BME280;30041;48.300;16.352;2022-08-19T02:28:43;99085.94;;;25.43;54.13
43312;BME280;30041;48.300;16.352;2022-08-19T02:31:14;99085.94;;;25.43;53.66
43312;BME280;30041;48.300;16.352;2022-08-19T02:33:42;99081.59;;;25.47;53.57
43312;BME280;30041;48.300;16.352;2022-08-19T02:36:08;99087.53;;;25.50;53.46
43312;BME280;30041;48.300;16.352;2022-08-19T02:38:35;99094.56;;;25.56;53.47
43312;BME280;30041;48.300;16.352;2022-08-19T02:41:06;99087.78;;;25.53;53.32
43312;BME280;30041;48.300;16.352;2022-08-19T02:43:33;99084.81;;;25.50;53.17
43312;BME280;30041;48.300;16.352;2022-08-19T02:45:59;99084.81;;;25.50;53.18
43312;BME280;30041;48.300;16.352;2022-08-19T02:48:25;99092.16;;;25.49;53.05
43312;BME280;30041;48.300;16.352;2022-08-19T02:50:52;99095.38;;;25.56;52.90
43312;BME280;30041;48.300;16.352;2022-08-19T02:53:18;99083.44;;;25.57;52.82
43312;BME280;30041;48.300;16.352;2022-08-19T02:55:45;99078.31;;;25.51;52.85
43312;BME280;30041;48.300;16.352;2022-08-19T02:58:12;99072.09;;;25.50;52.67
43312;BME280;30041;48.300;16.352;2022-08-19T03:00:43;99072.63;;;25.47;52.73
43312;BME280;30041;48.300;16.352;2022-08-19T03:03:09;99070.75;;;25.47;52.92
43312;BME280;30041;48.300;16.352;2022-08-19T03:06:07;99066.13;;;25.48;52.72
43312;BME280;30041;48.300;16.352;2022-08-19T03:08:33;99068.03;;;25.47;52.63
43312;BME280;30041;48.300;16.352;2022-08-19T03:10:58;99058.25;;;25.46;52.68
43312;BME280;30041;48.300;16.352;2022-08-19T03:13:24;99062.06;;;25.45;52.49
43312;BME280;30041;48.300;16.352;2022-08-19T03:15:50;99072.31;;;25.54;52.34
43312;BME280;30041;48.300;16.352;2022-08-19T03:18:16;99065.53;;;25.56;52.35
43312;BME280;30041;48.300;16.352;2022-08-19T03:20:47;99063.06;;;25.60;52.33
43312;BME280;30041;48.300;16.352;2022-08-19T03:23:14;99061.16;;;25.60;52.21
43312;BME280;30041;48.300;16.352;2022-08-19T03:25:44;99066.28;;;25.67;51.97
43312;BME280;30041;48.300;16.352;2022-08-19T03:28:11;99066.06;;;25.63;51.79
43312;BME280;30041;48.300;16.352;2022-08-19T03:30:38;99074.19;;;25.58;52.31
43312;BME280;30041;48.300;16.352;2022-08-19T03:33:07;99084.25;;;25.58;52.32
43312;BME280;30041;48.300;16.352;2022-08-19T03:35:33;99095.59;;;25.65;51.85
43312;BME280;30041;48.300;16.352;2022-08-19T03:37:59;99100.22;;;25.64;51.98
43312;BME280;30041;48.300;16.352;2022-08-19T03:40:25;99098.84;;;25.67;51.99
43312;BME280;30041;48.300;16.352;2022-08-19T03:42:51;99097.78;;;25.68;51.77
43312;BME280;30041;48.300;16.352;2022-08-19T03:45:17;99100.00;;;25.61;52.19
43312;BME280;30041;48.300;16.352;2022-08-19T03:47:43;99104.28;;;25.67;51.77
43312;BME280;30041;48.300;16.352;2022-08-19T03:50:12;99105.91;;;25.68;51.72
43312;BME280;30041;48.300;16.352;2022-08-19T03:52:37;99108.63;;;25.68;51.66
43312;BME280;30041;48.300;16.352;2022-08-19T03:55:03;99112.97;;;25.64;51.78
43312;BME280;30041;48.300;16.352;2022-08-19T03:57:29;99112.47;;;25.57;52.03
43312;BME280;30041;48.300;16.352;2022-08-19T03:59:55;99110.84;;;25.61;51.93
43312;BME280;30041;48.300;16.352;2022-08-19T04:02:24;99114.63;;;25.60;51.97
43312;BME280;30041;48.300;16.352;2022-08-19T04:04:53;99111.06;;;25.64;51.91
43312;BME280;30041;48.300;16.352;2022-08-19T04:07:18;99111.34;;;25.63;51.84
43312;BME280;30041;48.300;16.352;2022-08-19T04:09:44;99118.44;;;25.59;51.98
43312;BME280;30041;48.300;16.352;2022-08-19T04:12:10;99117.91;;;25.57;52.07
43312;BME280;30041;48.300;16.352;2022-08-19T04:14:35;99122.75;;;25.60;52.03
43312;BME280;30041;48.300;16.352;2022-08-19T04:17:02;99122.75;;;25.60;51.80
43312;BME280;30041;48.300;16.352;2022-08-19T04:19:29;99128.72;;;25.62;51.84
43312;BME280;30041;48.300;16.352;2022-08-19T04:21:55;99135.50;;;25.64;51.96
43312;BME280;30041;48.300;16.352;2022-08-19T04:24:22;99133.88;;;25.68;51.68
43312;BME280;30041;48.300;16.352;2022-08-19T04:26:48;99133.88;;;25.68;52.21
43312;BME280;30041;48.300;16.352;2022-08-19T04:29:20;99141.28;;;25.37;53.03
43312;BME280;30041;48.300;16.352;2022-08-19T04:31:46;99153.78;;;25.13;53.62
43312;BME280;30041;48.300;16.352;2022-08-19T04:34:13;99158.97;;;24.99;54.04
43312;BME280;30041;48.300;16.352;2022-08-19T04:36:44;99156.78;;;24.91;54.45
43312;BME280;30041;48.300;16.352;2022-08-19T04:39:14;99156.50;;;24.87;54.66
43312;BME280;30041;48.300;16.352;2022-08-19T04:41:41;99156.25;;;24.83;55.33
43312;BME280;30041;48.300;16.352;2022-08-19T04:44:07;99159.78;;;24.84;55.25
43312;BME280;30041;48.300;16.352;2022-08-19T04:46:33;99162.22;;;24.85;55.24
43312;BME280;30041;48.300;16.352;2022-08-19T04:49:00;99166.81;;;24.80;55.36
43312;BME280;30041;48.300;16.352;2022-08-19T04:51:26;99177.41;;;24.76;55.39
43312;BME280;30041;48.300;16.352;2022-08-19T04:53:52;99187.16;;;24.77;55.52
43312;BME280;30041;48.300;16.352;2022-08-19T04:56:20;99184.16;;;24.74;56.11
43312;BME280;30041;48.300;16.352;2022-08-19T04:58:46;99186.84;;;24.74;56.04
43312;BME280;30041;48.300;16.352;2022-08-19T05:01:13;99177.66;;;24.75;56.09
43312;BME280;30041;48.300;16.352;2022-08-19T05:03:42;99174.66;;;24.71;56.36
43312;BME280;30041;48.300;16.352;2022-08-19T05:06:10;99171.16;;;24.76;56.04
43312;BME280;30041;48.300;16.352;2022-08-19T05:08:37;99167.63;;;24.75;56.23
43312;BME280;30041;48.300;16.352;2022-08-19T05:11:19;99169.00;;;24.83;55.90
43312;BME280;30041;48.300;16.352;2022-08-19T05:13:45;99165.47;;;24.88;55.81
43312;BME280;30041;48.300;16.352;2022-08-19T05:16:12;99173.88;;;24.96;55.50
43312;BME280;30041;48.300;16.352;2022-08-19T05:18:39;99171.72;;;24.98;55.59
43312;BME280;30041;48.300;16.352;2022-08-19T05:21:10;99174.94;;;24.95;55.74
43312;BME280;30041;48.300;16.352;2022-08-19T05:23:39;99171.69;;;24.93;56.11
43312;BME280;30041;48.300;16.352;2022-08-19T05:26:04;99179.84;;;24.88;56.09
43312;BME280;30041;48.300;16.352;2022-08-19T05:28:30;99188.50;;;24.90;55.90
43312;BME280;30041;48.300;16.352;2022-08-19T05:30:56;99205.28;;;24.87;56.25
43312;BME280;30041;48.300;16.352;2022-08-19T05:33:23;99209.09;;;24.81;56.97
43312;BME280;30041;48.300;16.352;2022-08-19T05:35:49;99215.34;;;24.81;56.53
43312;BME280;30041;48.300;16.352;2022-08-19T05:38:20;99225.38;;;24.86;56.61
43312;BME280;30041;48.300;16.352;2022-08-19T05:40:46;99218.88;;;24.97;56.14
43312;BME280;30041;48.300;16.352;2022-08-19T05:43:12;99228.63;;;25.03;55.98
43312;BME280;30041;48.300;16.352;2022-08-19T05:45:39;99241.63;;;25.06;56.06
43312;BME280;30041;48.300;16.352;2022-08-19T05:48:08;99248.47;;;25.19;55.21
43312;BME280;30041;48.300;16.352;2022-08-19T05:50:35;99254.16;;;25.28;54.91
43312;BME280;30041;48.300;16.352;2022-08-19T05:53:03;99267.97;;;25.37;54.69
43312;BME280;30041;48.300;16.352;2022-08-19T05:55:30;99259.28;;;25.45;53.76
43312;BME280;30041;48.300;16.352;2022-08-19T05:57:55;99267.94;;;25.47;54.01
43312;BME280;30041;48.300;16.352;2022-08-19T06:00:21;99275.00;;;25.53;53.85
43312;BME280;30041;48.300;16.352;2022-08-19T06:02:47;99275.81;;;25.48;53.89
43312;BME280;30041;48.300;16.352;2022-08-19T06:05:13;99270.69;;;25.42;54.05
43312;BME280;30041;48.300;16.352;2022-08-19T06:07:44;99263.63;;;25.46;53.83
43312;BME280;30041;48.300;16.352;2022-08-19T06:10:12;99269.31;;;25.50;53.76
43312;BME280;30041;48.300;16.352;2022-08-19T06:12:38;99264.97;;;25.59;53.93
43312;BME280;30041;48.300;16.352;2022-08-19T06:15:12;99258.44;;;25.60;53.42
43312;BME280;30041;48.300;16.352;2022-08-19T06:17:38;99257.38;;;25.61;53.58
43312;BME280;30041;48.300;16.352;2022-08-19T06:20:10;99250.28;;;25.65;53.56
43312;BME280;30041;48.300;16.352;2022-08-19T06:22:44;99256.53;;;25.60;53.57
43312;BME280;30041;48.300;16.352;2022-08-19T06:25:11;99263.31;;;25.63;53.29
43312;BME280;30041;48.300;16.352;2022-08-19T06:27:37;99262.81;;;25.61;53.33
43312;BME280;30041;48.300;16.352;2022-08-19T06:30:07;99267.66;;;25.64;53.11
43312;BME280;30041;48.300;16.352;2022-08-19T06:32:32;99264.69;;;25.55;53.61
43312;BME280;30041;48.300;16.352;2022-08-19T06:34:58;99264.97;;;25.48;53.96
43312;BME280;30041;48.300;16.352;2022-08-19T06:37:24;99270.41;;;25.43;53.99
43312;BME280;30041;48.300;16.352;2022-08-19T06:39:50;99265.53;;;25.45;54.23
43312;BME280;30041;48.300;16.352;2022-08-19T06:42:16;99256.28;;;25.57;55.00
43312;BME280;30041;48.300;16.352;2022-08-19T06:44:44;99262.25;;;25.64;54.17
43312;BME280;30041;48.300;16.352;2022-08-19T06:47:18;99271.50;;;25.53;54.29
43312;BME280;30041;48.300;16.352;2022-08-19T06:49:44;99271.50;;;25.42;54.21
43312;BME280;30041;48.300;16.352;2022-08-19T06:52:13;99277.22;;;25.41;54.06
43312;BME280;30041;48.300;16.352;2022-08-19T06:54:47;99287.50;;;25.39;54.34
43312;BME280;30041;48.300;16.352;2022-08-19T06:57:18;99286.44;;;25.35;54.61
43312;BME280;30041;48.300;16.352;2022-08-19T06:59:47;99280.19;;;25.34;54.59
43312;BME280;30041;48.300;16.352;2022-08-19T07:02:21;99275.81;;;25.38;54.61
43312;BME280;30041;48.300;16.352;2022-08-19T07:04:54;99260.91;;;25.36;54.69
43312;BME280;30041;48.300;16.352;2022-08-19T07:07:23;99266.63;;;25.39;54.47
43312;BME280;30041;48.300;16.352;2022-08-19T07:09:57;99263.88;;;25.44;54.40
43312;BME280;30041;48.300;16.352;2022-08-19T07:12:31;99265.53;;;25.45;54.46
43312;BME280;30041;48.300;16.352;2022-08-19T07:14:57;99275.00;;;25.43;54.63
43312;BME280;30041;48.300;16.352;2022-08-19T07:17:26;99278.25;;;25.45;54.06
43312;BME280;30041;48.300;16.352;2022-08-19T07:20:01;99276.38;;;25.40;54.18
43312;BME280;30041;48.300;16.352;2022-08-19T07:22:27;99261.44;;;25.43;54.00
43312;BME280;30041;48.300;16.352;2022-08-19T07:24:59;99258.22;;;25.41;54.14
43312;BME280;30041;48.300;16.352;2022-08-19T07:27:25;99245.16;;;25.53;53.92
43312;BME280;30041;48.300;16.352;2022-08-19T07:29:52;99253.56;;;25.57;53.95
43312;BME280;30041;48.300;16.352;2022-08-19T07:32:21;99242.72;;;25.62;54.11
43312;BME280;30041;48.300;16.352;2022-08-19T07:34:47;99257.06;;;25.67;53.73
43312;BME280;30041;48.300;16.352;2022-08-19T07:37:12;99252.72;;;25.72;54.13
43312;BME280;30041;48.300;16.352;2022-08-19T07:39:38;99237.78;;;25.74;53.92
43312;BME280;30041;48.300;16.352;2022-08-19T07:42:08;99238.28;;;25.86;53.53
43312;BME280;30041;48.300;16.352;2022-08-19T07:44:34;99233.97;;;25.85;53.74
43312;BME280;30041;48.300;16.352;2022-08-19T07:47:01;99242.13;;;25.85;53.81
43312;BME280;30041;48.300;16.352;2022-08-19T07:49:29;99223.41;;;25.74;53.98
43312;BME280;30041;48.300;16.352;2022-08-19T07:52:01;99221.22;;;25.76;53.75
43312;BME280;30041;48.300;16.352;2022-08-19T07:54:30;99206.56;;;25.77;53.79
43312;BME280;30041;48.300;16.352;2022-08-19T07:56:57;99190.81;;;25.74;54.04
43312;BME280;30041;48.300;16.352;2022-08-19T07:59:23;99188.91;;;25.74;53.92
43312;BME280;30041;48.300;16.352;2022-08-19T08:01:50;99190.03;;;25.73;54.33
43312;BME280;30041;48.300;16.352;2022-08-19T08:04:19;99200.31;;;25.76;53.78
43312;BME280;30041;48.300;16.352;2022-08-19T08:06:45;99214.97;;;25.85;53.43
43312;BME280;30041;48.300;16.352;2022-08-19T08:09:11;99216.56;;;25.86;53.54
43312;BME280;30041;48.300;16.352;2022-08-19T08:11:59;99214.63;;;26.07;52.87
43312;BME280;30041;48.300;16.352;2022-08-19T08:14:31;99221.38;;;26.15;52.65
43312;BME280;30041;48.300;16.352;2022-08-19T08:16:57;99226.53;;;26.12;52.71
43312;BME280;30041;48.300;16.352;2022-08-19T08:19:25;99227.06;;;26.19;52.31
43312;BME280;30041;48.300;16.352;2022-08-19T08:21:53;99228.97;;;26.18;52.72
43312;BME280;30041;48.300;16.352;2022-08-19T08:24:19;99230.06;;;26.12;52.60
43312;BME280;30041;48.300;16.352;2022-08-19T08:26:45;99227.91;;;26.09;52.78
43312;BME280;30041;48.300;16.352;2022-08-19T08:29:14;99236.06;;;26.09;52.79
43312;BME280;30041;48.300;16.352;2022-08-19T08:31:51;99242.91;;;26.01;53.20
43312;BME280;30041;48.300;16.352;2022-08-19T08:34:17;99245.34;;;25.98;52.83
43312;BME280;30041;48.300;16.352;2022-08-19T08:36:49;99249.41;;;26.00;52.90
43312;BME280;30041;48.300;16.352;2022-08-19T08:39:25;99255.09;;;26.04;52.70
43312;BME280;30041;48.300;16.352;2022-08-19T08:47:05;99258.94;;;25.98;52.85
43312;BME280;30041;48.300;16.352;2022-08-19T08:50:18;99276.31;;;25.97;52.67
43312;BME280;30041;48.300;16.352;2022-08-19T08:52:46;99265.16;;;25.98;52.74
43312;BME280;30041;48.300;16.352;2022-08-19T08:55:18;99259.50;;;25.95;52.65
43312;BME280;30041;48.300;16.352;2022-08-19T08:57:52;99259.75;;;25.93;52.72
43312;BME280;30041;48.300;16.352;2022-08-19T09:00:26;99270.31;;;26.00;52.60
43312;BME280;30041;48.300;16.352;2022-08-19T09:02:54;99268.69;;;25.99;53.09
43312;BME280;30041;48.300;16.352;2022-08-19T09:05:21;99279.25;;;26.05;52.44
43312;BME280;30041;48.300;16.352;2022-08-19T09:10:34;99266.25;;;25.87;53.28
43312;BME280;30041;48.300;16.352;2022-08-19T09:16:02;99268.16;;;25.92;52.96
43312;BME280;30041;48.300;16.352;2022-08-19T09:18:50;99260.59;;;25.88;52.96
43312;BME280;30041;48.300;16.352;2022-08-19T09:21:16;99260.03;;;25.97;52.58
43312;BME280;30041;48.300;16.352;2022-08-19T09:23:42;99253.75;;;25.96;52.49
43312;BME280;30041;48.300;16.352;2022-08-19T09:26:13;99246.69;;;26.00;52.88
43312;BME280;30041;48.300;16.352;2022-08-19T09:28:40;99236.09;;;26.04;52.68
43312;BME280;30041;48.300;16.352;2022-08-19T09:31:06;99224.88;;;26.26;52.56
43312;BME280;30041;48.300;16.352;2022-08-19T09:33:34;99233.75;;;26.42;52.33
43312;BME280;30041;48.300;16.352;2022-08-19T09:36:11;99222.63;;;26.38;52.22
43312;BME280;30041;48.300;16.352;2022-08-19T09:38:41;99209.97;;;26.13;52.36
43312;BME280;30041;48.300;16.352;2022-08-19T09:41:09;99211.63;;;26.09;51.74
43312;BME280;30041;48.300;16.352;2022-08-19T09:43:35;99205.66;;;26.07;52.14
43312;BME280;30041;48.300;16.352;2022-08-19T09:46:04;99211.09;;;26.07;51.73
43312;BME280;30041;48.300;16.352;2022-08-19T09:48:32;99218.16;;;26.03;51.92
43312;BME280;30041;48.300;16.352;2022-08-19T09:51:09;99217.94;;;25.99;52.12
43312;BME280;30041;48.300;16.352;2022-08-19T09:53:36;99216.03;;;25.89;52.21
43312;BME280;30041;48.300;16.352;2022-08-19T09:56:04;99216.56;;;25.86;52.27
43312;BME280;30041;48.300;16.352;2022-08-19T09:58:32;99220.94;;;25.82;52.72
43312;BME280;30041;48.300;16.352;2022-08-19T10:01:01;99220.13;;;25.82;52.69
43312;BME280;30041;48.300;16.352;2022-08-19T10:03:31;99224.44;;;25.83;52.56
43312;BME280;30041;48.300;16.352;2022-08-19T10:06:00;99215.22;;;25.84;52.56
43312;BME280;30041;48.300;16.352;2022-08-19T10:08:31;99217.13;;;25.78;52.73
43312;BME280;30041;48.300;16.352;2022-08-19T10:11:00;99217.13;;;25.78;52.58
43312;BME280;30041;48.300;16.352;2022-08-19T10:13:28;99212.28;;;25.75;52.67
43312;BME280;30041;48.300;16.352;2022-08-19T10:15:56;99209.84;;;25.79;52.47
43312;BME280;30041;48.300;16.352;2022-08-19T10:18:23;99209.28;;;25.72;52.64
43312;BME280;30041;48.300;16.352;2022-08-19T10:20:50;99210.13;;;25.72;52.62
43312;BME280;30041;48.300;16.352;2022-08-19T10:23:17;99214.19;;;25.69;52.86
43312;BME280;30041;48.300;16.352;2022-08-19T10:25:43;99209.28;;;25.72;52.78
43312;BME280;30041;48.300;16.352;2022-08-19T10:28:09;99197.09;;;25.69;52.52
43312;BME280;30041;48.300;16.352;2022-08-19T10:30:36;99203.06;;;25.71;52.57
43312;BME280;30041;48.300;16.352;2022-08-19T10:33:01;99204.41;;;25.74;52.64
43312;BME280;30041;48.300;16.352;2022-08-19T10:35:27;99205.50;;;25.73;52.49
43312;BME280;30041;48.300;16.352;2022-08-19T10:37:53;99213.63;;;25.67;52.84
43312;BME280;30041;48.300;16.352;2022-08-19T10:40:21;99216.09;;;25.69;52.52
43312;BME280;30041;48.300;16.352;2022-08-19T10:42:47;99238.06;;;25.73;52.60
43312;BME280;30041;48.300;16.352;2022-08-19T10:45:13;99251.91;;;25.71;52.52
43312;BME280;30041;48.300;16.352;2022-08-19T10:47:46;99253.28;;;25.68;52.68
43312;BME280;30041;48.300;16.352;2022-08-19T10:50:12;99257.06;;;25.67;52.69
43312;BME280;30041;48.300;16.352;2022-08-19T10:52:40;99258.16;;;25.66;52.60
43312;BME280;30041;48.300;16.352;2022-08-19T10:55:07;99251.13;;;25.65;52.87
43312;BME280;30041;48.300;16.352;2022-08-19T10:57:32;99236.19;;;25.63;52.77
43312;BME280;30041;48.300;16.352;2022-08-19T11:00:02;99212.03;;;25.66;52.60
43312;BME280;30041;48.300;16.352;2022-08-19T11:02:35;99213.63;;;25.67;52.81
43312;BME280;30041;48.300;16.352;2022-08-19T11:05:01;99203.63;;;25.68;52.76
43312;BME280;30041;48.300;16.352;2022-08-19T11:07:27;99210.69;;;25.64;53.12
43312;BME280;30041;48.300;16.352;2022-08-19T11:09:55;99231.03;;;25.61;53.14
43312;BME280;30041;48.300;16.352;2022-08-19T11:12:24;99254.09;;;25.64;53.22
43312;BME280;30041;48.300;16.352;2022-08-19T11:14:49;99247.56;;;25.65;53.34
43312;BME280;30041;48.300;16.352;2022-08-19T11:17:16;99241.88;;;25.66;53.26
43312;BME280;30041;48.300;16.352;2022-08-19T11:19:42;99227.78;;;25.64;53.82
43312;BME280;30041;48.300;16.352;2022-08-19T11:22:08;99214.19;;;25.64;53.84
43312;BME280;30041;48.300;16.352;2022-08-19T11:24:34;99220.72;;;25.63;54.02
43312;BME280;30041;48.300;16.352;2022-08-19T11:27:05;99219.63;;;25.64;53.96
43312;BME280;30041;48.300;16.352;2022-08-19T11:29:32;99206.31;;;25.63;54.09
43312;BME280;30041;48.300;16.352;2022-08-19T11:31:58;99199.28;;;25.62;54.21
43312;BME280;30041;48.300;16.352;2022-08-19T11:34:26;99200.63;;;25.64;54.36
43312;BME280;30041;48.300;16.352;2022-08-19T11:36:56;99188.44;;;25.62;54.48
43312;BME280;30041;48.300;16.352;2022-08-19T11:39:22;99190.03;;;25.63;54.79
43312;BME280;30041;48.300;16.352;2022-08-19T11:41:51;99190.88;;;25.63;54.50
43312;BME280;30041;48.300;16.352;2022-08-19T11:44:17;99188.94;;;25.69;54.07
43312;BME280;30041;48.300;16.352;2022-08-19T11:46:43;99182.72;;;25.68;53.96
43312;BME280;30041;48.300;16.352;2022-08-19T11:49:17;99177.28;;;25.68;54.34
43312;BME280;30041;48.300;16.352;2022-08-19T11:51:43;99177.81;;;25.71;54.22
43312;BME280;30041;48.300;16.352;2022-08-19T11:54:09;99179.72;;;25.70;54.05
43312;BME280;30041;48.300;16.352;2022-08-19T11:56:37;99178.56;;;25.86;53.89
43312;BME280;30041;48.300;16.352;2022-08-19T11:59:06;99170.44;;;25.97;54.19
43312;BME280;30041;48.300;16.352;2022-08-19T12:01:38;99171.25;;;25.92;54.65
43312;BME280;30041;48.300;16.352;2022-08-19T12:04:03;99162.56;;;25.95;54.72
43312;BME280;30041;48.300;16.352;2022-08-19T12:06:31;99174.22;;;25.96;54.50
43312;BME280;30041;48.300;16.352;2022-08-19T12:09:06;99173.94;;;25.97;54.17
43312;BME280;30041;48.300;16.352;2022-08-19T12:11:33;99160.91;;;25.99;54.27
43312;BME280;30041;48.300;16.352;2022-08-19T12:13:58;99169.28;;;26.03;54.08
43312;BME280;30041;48.300;16.352;2022-08-19T12:16:26;99157.34;;;26.04;53.98
43312;BME280;30041;48.300;16.352;2022-08-19T12:18:53;99159.50;;;26.07;53.76
43312;BME280;30041;48.300;16.352;2022-08-19T12:21:22;99168.97;;;26.09;53.59
43312;BME280;30041;48.300;16.352;2022-08-19T12:23:49;99165.97;;;26.16;53.77
43312;BME280;30041;48.300;16.352;2022-08-19T12:26:15;99160.00;;;26.19;53.29
43312;BME280;30041;48.300;16.352;2022-08-19T12:28:41;99164.34;;;26.15;53.54
43312;BME280;30041;48.300;16.352;2022-08-19T12:31:08;99160.28;;;26.13;53.21
43312;BME280;30041;48.300;16.352;2022-08-19T12:33:37;99176.28;;;26.14;52.91
43312;BME280;30041;48.300;16.352;2022-08-19T12:36:05;99173.06;;;26.07;53.13
43312;BME280;30041;48.300;16.352;2022-08-19T12:38:35;99176.31;;;26.09;53.07
43312;BME280;30041;48.300;16.352;2022-08-19T12:41:02;99176.91;;;26.06;52.74
43312;BME280;30041;48.300;16.352;2022-08-19T12:43:28;99178.50;;;26.07;52.62
43312;BME280;30041;48.300;16.352;2022-08-19T12:45:53;99180.94;;;26.08;52.65
43312;BME280;30041;48.300;16.352;2022-08-19T12:48:22;99185.31;;;26.04;52.65
43312;BME280;30041;48.300;16.352;2022-08-19T12:50:48;99196.97;;;26.05;52.57
43312;BME280;30041;48.300;16.352;2022-08-19T12:53:14;99195.88;;;26.11;52.65
43312;BME280;30041;48.300;16.352;2022-08-19T12:55:41;99209.19;;;26.13;52.30
43312;BME280;30041;48.300;16.352;2022-08-19T12:58:07;99217.31;;;26.07;52.66
43312;BME280;30041;48.300;16.352;2022-08-19T13:00:36;99221.97;;;26.07;52.59
43312;BME280;30041;48.300;16.352;2022-08-19T13:03:04;99215.44;;;26.08;52.48
43312;BME280;30041;48.300;16.352;2022-08-19T13:05:32;99209.47;;;26.06;52.51
43312;BME280;30041;48.300;16.352;2022-08-19T13:07:59;99204.06;;;26.06;52.53